createdAt,value
2023-04-23T00:01:59.571Z,16.46
2023-04-23T00:04:29.110Z,16.46
2023-04-23T00:06:55.957Z,16.44
2023-04-23T00:09:23.985Z,16.44
2023-04-23T00:11:51.120Z,16.44
2023-04-23T00:14:18.067Z,16.44
2023-04-23T00:16:45.103Z,16.44
2023-04-23T00:19:11.874Z,16.44
2023-04-23T00:21:38.532Z,16.43
2023-04-23T00:24:05.669Z,16.44
2023-04-23T00:26:32.371Z,16.44
2023-04-23T00:28:59.035Z,16.43
2023-04-23T00:31:27.308Z,16.43
2023-04-23T00:33:54.202Z,16.43
2023-04-23T00:36:20.873Z,16.43
2023-04-23T00:38:48.107Z,16.43
2023-04-23T00:41:15.403Z,16.43
2023-04-23T00:43:42.089Z,16.43
2023-04-23T00:46:09.095Z,16.43
2023-04-23T00:48:36.430Z,16.41
2023-04-23T00:51:05.680Z,16.40
2023-04-23T00:53:33.713Z,16.39
2023-04-23T00:56:02.378Z,16.38
2023-04-23T00:58:29.936Z,16.34
2023-04-23T01:00:56.963Z,16.32
2023-04-23T01:03:25.747Z,16.30
2023-04-23T01:05:52.983Z,16.28
2023-04-23T01:08:22.476Z,16.26
2023-04-23T01:10:49.519Z,16.26
2023-04-23T01:13:16.885Z,16.26
2023-04-23T01:15:45.245Z,16.26
2023-04-23T01:18:13.030Z,16.25
2023-04-23T01:20:40.012Z,16.25
2023-04-23T01:23:07.641Z,16.24
2023-04-23T01:25:34.937Z,16.24
2023-04-23T01:28:01.810Z,16.23
2023-04-23T01:30:29.276Z,16.22
2023-04-23T01:32:56.767Z,16.20
2023-04-23T01:35:25.533Z,16.19
2023-04-23T01:37:54.071Z,16.18
2023-04-23T01:40:21.476Z,16.17
2023-04-23T01:42:48.608Z,16.15
2023-04-23T01:45:15.748Z,16.13
2023-04-23T01:47:42.660Z,16.13
2023-04-23T01:50:10.271Z,16.13
2023-04-23T01:52:36.933Z,16.13
2023-04-23T01:55:04.332Z,16.13
2023-04-23T01:57:30.969Z,16.12
2023-04-23T02:00:18.164Z,16.11
2023-04-23T02:02:45.605Z,16.11
2023-04-23T02:05:15.211Z,16.10
2023-04-23T02:07:43.898Z,16.09
2023-04-23T02:10:11.263Z,16.08
2023-04-23T02:12:38.460Z,16.06
2023-04-23T02:15:07.040Z,16.05
2023-04-23T02:17:33.803Z,16.04
2023-04-23T02:20:00.699Z,16.05
2023-04-23T02:22:28.475Z,16.05
2023-04-23T02:24:55.549Z,16.03
2023-04-23T02:27:22.323Z,16.02
2023-04-23T02:29:49.614Z,16.03
2023-04-23T02:32:16.360Z,16.01
2023-04-23T02:34:43.428Z,16.01
2023-04-23T02:37:10.509Z,16.01
2023-04-23T02:39:39.344Z,16.00
2023-04-23T02:42:06.801Z,15.99
2023-04-23T02:44:33.433Z,15.98
2023-04-23T02:47:00.817Z,15.98
2023-04-23T02:49:27.643Z,15.97
2023-04-23T02:51:54.510Z,15.97
2023-04-23T02:54:21.252Z,15.97
2023-04-23T02:56:47.943Z,15.96
2023-04-23T02:59:14.801Z,15.97
2023-04-23T03:01:41.475Z,15.97
2023-04-23T03:04:09.170Z,15.99
2023-04-23T03:06:36.965Z,15.98
2023-04-23T03:09:03.887Z,15.99
2023-04-23T03:11:31.649Z,15.99
2023-04-23T03:13:58.675Z,16.00
2023-04-23T03:16:28.391Z,16.02
2023-04-23T03:18:55.621Z,16.02
2023-04-23T03:21:22.560Z,16.03
2023-04-23T03:23:49.913Z,16.04
2023-04-23T03:26:17.138Z,16.04
2023-04-23T03:28:43.942Z,16.04
2023-04-23T03:31:10.881Z,16.04
2023-04-23T03:33:37.557Z,16.04
2023-04-23T03:36:05.780Z,16.05
2023-04-23T03:38:33.110Z,16.05
2023-04-23T03:41:00.569Z,16.05
2023-04-23T03:43:27.864Z,16.05
2023-04-23T03:46:20.660Z,16.04
2023-04-23T03:48:47.424Z,16.03
2023-04-23T03:51:21.009Z,16.03
2023-04-23T03:53:50.696Z,16.02
2023-04-23T03:56:33.940Z,16.02
2023-04-23T03:59:09.611Z,16.01
2023-04-23T04:01:36.967Z,16.00
2023-04-23T04:04:03.974Z,15.99
2023-04-23T04:06:33.454Z,15.98
2023-04-23T04:09:00.208Z,15.99
2023-04-23T04:11:27.208Z,16.01
2023-04-23T04:13:53.815Z,16.03
2023-04-23T04:16:20.478Z,16.03
2023-04-23T04:18:47.050Z,16.04
2023-04-23T04:21:13.657Z,16.05
2023-04-23T04:23:40.347Z,16.04
2023-04-23T04:26:08.174Z,16.01
2023-04-23T04:28:36.397Z,16.01
2023-04-23T04:31:05.588Z,16.02
2023-04-23T04:33:34.341Z,16.01
2023-04-23T04:36:01.763Z,16.01
2023-04-23T04:38:29.838Z,16.02
2023-04-23T04:41:00.335Z,15.99
2023-04-23T04:43:27.161Z,15.90
2023-04-23T04:45:53.927Z,15.72
2023-04-23T04:48:20.866Z,15.55
2023-04-23T04:50:48.080Z,15.46
2023-04-23T04:53:14.717Z,15.42
2023-04-23T04:55:41.681Z,15.36
2023-04-23T04:58:08.306Z,15.33
2023-04-23T05:00:35.460Z,15.34
2023-04-23T05:03:02.440Z,15.34
2023-04-23T05:05:29.332Z,15.33
2023-04-23T05:07:59.224Z,15.23
2023-04-23T05:10:26.878Z,15.10
2023-04-23T05:12:53.510Z,14.99
2023-04-23T05:15:20.484Z,14.89
2023-04-23T05:17:47.255Z,14.85
2023-04-23T05:20:14.681Z,14.81
2023-04-23T05:22:42.968Z,14.77
2023-04-23T05:25:11.858Z,14.75
2023-04-23T05:27:39.394Z,14.82
2023-04-23T05:30:08.474Z,14.88
2023-04-23T05:32:35.950Z,14.99
2023-04-23T05:35:04.132Z,15.12
2023-04-23T05:37:30.998Z,15.27
2023-04-23T05:39:58.524Z,15.41
2023-04-23T05:42:25.452Z,15.58
2023-04-23T05:44:52.207Z,15.77
2023-04-23T05:47:18.858Z,15.93
2023-04-23T05:49:45.697Z,16.04
2023-04-23T05:52:12.430Z,16.18
2023-04-23T05:54:39.444Z,16.29
2023-04-23T05:57:06.473Z,16.44
2023-04-23T05:59:33.946Z,16.59
2023-04-23T06:02:01.014Z,16.68
2023-04-23T06:04:27.876Z,16.79
2023-04-23T06:06:54.813Z,16.90
2023-04-23T06:09:21.574Z,16.98
2023-04-23T06:11:50.647Z,17.07
2023-04-23T06:14:17.265Z,17.21
2023-04-23T06:16:43.963Z,17.30
2023-04-23T06:19:11.537Z,17.40
2023-04-23T06:21:38.589Z,17.53
2023-04-23T06:24:07.451Z,17.54
2023-04-23T06:26:34.263Z,17.51
2023-04-23T06:29:02.193Z,17.54
2023-04-23T06:31:31.881Z,17.53
2023-04-23T06:33:58.628Z,17.53
2023-04-23T06:36:25.304Z,17.49
2023-04-23T06:38:51.950Z,17.44
2023-04-23T06:41:19.025Z,17.35
2023-04-23T06:43:46.035Z,17.30
2023-04-23T06:46:30.721Z,17.27
2023-04-23T06:48:57.316Z,17.31
2023-04-23T06:51:26.824Z,17.28
2023-04-23T06:53:54.029Z,17.16
2023-04-23T06:56:21.788Z,17.10
2023-04-23T06:58:48.364Z,17.06
2023-04-23T07:01:20.393Z,17.05
2023-04-23T07:03:49.403Z,16.98
2023-04-23T07:06:16.399Z,16.90
2023-04-23T07:08:45.103Z,16.88
2023-04-23T07:11:12.185Z,16.85
2023-04-23T07:13:39.756Z,16.86
2023-04-23T07:16:07.200Z,16.92
2023-04-23T07:18:33.911Z,17.06
2023-04-23T07:21:00.622Z,17.18
2023-04-23T07:23:27.196Z,17.29
2023-04-23T07:25:53.767Z,17.47
2023-04-23T07:28:20.371Z,17.60
2023-04-23T07:30:47.031Z,17.65
2023-04-23T07:33:13.974Z,17.67
2023-04-23T07:35:40.608Z,17.70
2023-04-23T07:38:07.205Z,17.70
2023-04-23T07:40:33.764Z,17.72
2023-04-23T07:43:00.726Z,17.77
2023-04-23T07:45:27.448Z,17.85
2023-04-23T07:47:54.029Z,17.93
2023-04-23T07:50:20.859Z,18.03
2023-04-23T07:52:47.594Z,18.17
2023-04-23T07:55:14.280Z,18.41
2023-04-23T07:57:40.963Z,18.66
2023-04-23T08:00:11.525Z,18.93
2023-04-23T08:02:40.918Z,19.17
2023-04-23T08:05:08.331Z,19.34
2023-04-23T08:07:35.133Z,19.60
2023-04-23T08:10:06.122Z,19.95
2023-04-23T08:12:35.940Z,20.11
2023-04-23T08:15:03.865Z,20.34
2023-04-23T08:17:35.538Z,20.58
2023-04-23T08:20:03.965Z,20.85
2023-04-23T08:22:30.529Z,21.14
2023-04-23T08:24:57.150Z,21.47
2023-04-23T08:27:23.720Z,21.82
2023-04-23T08:29:50.287Z,22.01
2023-04-23T08:32:17.035Z,22.03
2023-04-23T08:34:43.693Z,22.06
2023-04-23T08:37:19.686Z,22.06
2023-04-23T08:39:54.151Z,22.18
2023-04-23T08:42:57.767Z,22.20
2023-04-23T08:45:26.307Z,22.35
2023-04-23T08:48:01.754Z,22.48
2023-04-23T08:50:30.996Z,22.72
2023-04-23T08:52:58.458Z,22.85
2023-04-23T08:55:25.876Z,22.93
2023-04-23T08:57:52.536Z,23.02
2023-04-23T09:00:23.100Z,23.06
2023-04-23T09:02:50.591Z,23.03
2023-04-23T09:05:17.569Z,22.94
2023-04-23T09:07:44.728Z,22.84
2023-04-23T09:10:14.711Z,22.88
2023-04-23T09:12:44.013Z,23.00
2023-04-23T09:15:13.004Z,23.24
2023-04-23T09:17:44.218Z,23.53
2023-04-23T09:20:12.679Z,23.69
2023-04-23T09:22:41.106Z,23.79
2023-04-23T09:25:09.666Z,24.06
2023-04-23T09:27:39.202Z,24.22
2023-04-23T09:30:08.074Z,24.41
2023-04-23T09:32:35.843Z,24.42
2023-04-23T09:35:06.847Z,24.08
2023-04-23T09:37:34.325Z,24.09
2023-04-23T09:40:13.842Z,24.04
2023-04-23T09:42:40.554Z,24.17
2023-04-23T09:45:09.465Z,24.44
2023-04-23T09:47:39.790Z,24.68
2023-04-23T09:50:07.478Z,24.69
2023-04-23T09:52:34.470Z,24.70
2023-04-23T09:55:05.776Z,24.83
2023-04-23T09:57:41.464Z,24.96
2023-04-23T10:00:17.256Z,25.09
2023-04-23T10:02:49.457Z,25.34
2023-04-23T10:05:24.476Z,25.57
2023-04-23T10:07:56.887Z,25.65
2023-04-23T10:10:24.655Z,25.46
2023-04-23T10:12:55.680Z,25.28
2023-04-23T10:15:27.159Z,25.31
2023-04-23T10:17:55.785Z,25.41
2023-04-23T10:20:23.718Z,25.36
2023-04-23T10:22:52.685Z,25.20
2023-04-23T10:25:21.298Z,25.24
2023-04-23T10:27:54.473Z,25.30
2023-04-23T10:30:23.253Z,25.30
2023-04-23T10:32:54.314Z,25.32
2023-04-23T10:35:20.957Z,25.19
2023-04-23T10:37:49.344Z,25.35
2023-04-23T10:40:24.812Z,25.44
2023-04-23T10:42:51.727Z,25.46
2023-04-23T10:45:25.320Z,25.62
2023-04-23T10:47:57.232Z,25.66
2023-04-23T10:50:28.383Z,25.59
2023-04-23T10:52:57.828Z,25.49
2023-04-23T10:55:27.940Z,25.62
2023-04-23T10:58:08.446Z,25.67
2023-04-23T11:00:41.142Z,25.67
2023-04-23T11:03:37.985Z,25.60
2023-04-23T11:06:07.293Z,25.58
2023-04-23T11:08:37.238Z,25.61
2023-04-23T11:11:09.275Z,25.40
2023-04-23T11:13:36.000Z,25.25
2023-04-23T11:16:23.924Z,25.22
2023-04-23T11:18:58.820Z,25.27
2023-04-23T11:22:00.001Z,25.47
2023-04-23T11:24:37.479Z,25.45
2023-04-23T11:27:08.168Z,25.33
2023-04-23T11:29:34.972Z,25.11
2023-04-23T11:32:03.939Z,24.96
2023-04-23T11:34:32.988Z,25.04
2023-04-23T11:37:00.920Z,25.11
2023-04-23T11:39:28.577Z,25.20
2023-04-23T11:41:55.387Z,25.41
2023-04-23T11:44:22.342Z,25.67
2023-04-23T11:46:50.636Z,25.75
2023-04-23T11:49:18.768Z,25.80
2023-04-23T11:51:46.627Z,26.13
2023-04-23T11:54:14.675Z,26.42
2023-04-23T11:56:41.632Z,26.45
2023-04-23T11:59:09.697Z,26.31
2023-04-23T12:01:47.425Z,26.23
2023-04-23T12:04:16.987Z,26.13
2023-04-23T12:06:46.272Z,25.97
2023-04-23T12:09:14.471Z,26.04
2023-04-23T12:11:42.728Z,25.93
2023-04-23T12:14:10.897Z,26.06
2023-04-23T12:16:43.115Z,26.12
2023-04-23T12:19:18.967Z,26.41
2023-04-23T12:21:51.046Z,26.73
2023-04-23T12:24:17.677Z,26.89
2023-04-23T12:26:44.576Z,26.78
2023-04-23T12:29:14.127Z,26.35
2023-04-23T12:31:43.807Z,25.97
2023-04-23T12:34:11.048Z,25.68
2023-04-23T12:36:39.722Z,25.41
2023-04-23T12:39:22.974Z,25.12
2023-04-23T12:41:54.609Z,24.82
2023-04-23T12:44:21.473Z,24.63
2023-04-23T12:47:07.965Z,24.54
2023-04-23T12:49:36.625Z,24.87
2023-04-23T12:52:06.327Z,25.41
2023-04-23T12:54:38.790Z,25.87
2023-04-23T12:57:07.477Z,26.22
2023-04-23T12:59:34.527Z,26.49
2023-04-23T13:02:04.321Z,26.45
2023-04-23T13:04:36.321Z,26.46
2023-04-23T13:07:03.309Z,26.43
2023-04-23T13:09:30.367Z,26.28
2023-04-23T13:11:57.194Z,26.16
2023-04-23T13:14:23.914Z,26.01
2023-04-23T13:16:50.988Z,25.91
2023-04-23T13:19:17.852Z,25.74
2023-04-23T13:21:45.554Z,25.64
2023-04-23T13:24:12.315Z,25.76
2023-04-23T13:26:39.045Z,25.93
2023-04-23T13:29:06.116Z,26.04
2023-04-23T13:31:33.035Z,25.94
2023-04-23T13:34:01.515Z,25.59
2023-04-23T13:36:28.523Z,25.18
2023-04-23T13:38:55.435Z,24.97
2023-04-23T13:41:22.099Z,24.64
2023-04-23T13:43:48.694Z,24.39
2023-04-23T13:46:15.408Z,24.20
2023-04-23T13:48:42.041Z,24.05
2023-04-23T13:51:21.430Z,23.99
2023-04-23T13:53:53.146Z,24.02
2023-04-23T13:56:19.916Z,24.10
2023-04-23T13:58:48.385Z,24.10
2023-04-23T14:01:15.829Z,24.01
2023-04-23T14:03:42.538Z,23.90
2023-04-23T14:06:09.202Z,23.72
2023-04-23T14:08:40.027Z,23.53
2023-04-23T14:11:06.713Z,23.44
2023-04-23T14:13:33.350Z,23.35
2023-04-23T14:16:02.874Z,23.40
2023-04-23T14:18:30.344Z,23.51
2023-04-23T14:20:57.194Z,23.56
2023-04-23T14:23:24.046Z,23.51
2023-04-23T14:25:59.056Z,23.42
2023-04-23T14:28:34.139Z,23.36
2023-04-23T14:31:03.064Z,23.34
2023-04-23T14:33:29.795Z,23.30
2023-04-23T14:35:56.571Z,23.24
2023-04-23T14:38:23.184Z,23.13
2023-04-23T14:40:49.789Z,23.03
2023-04-23T14:43:16.752Z,22.91
2023-04-23T14:45:43.799Z,22.81
2023-04-23T14:48:10.798Z,22.72
2023-04-23T14:50:37.496Z,22.71
2023-04-23T14:53:07.199Z,22.69
2023-04-23T14:55:34.301Z,22.68
2023-04-23T14:58:01.431Z,22.73
2023-04-23T15:00:28.514Z,22.80
2023-04-23T15:02:55.239Z,22.87
2023-04-23T15:05:22.070Z,22.99
2023-04-23T15:07:48.704Z,23.10
2023-04-23T15:10:15.407Z,23.19
2023-04-23T15:12:56.047Z,23.22
2023-04-23T15:15:43.897Z,23.21
2023-04-23T15:18:13.794Z,23.12
2023-04-23T15:20:41.447Z,23.05
2023-04-23T15:23:08.944Z,22.93
2023-04-23T15:25:36.984Z,22.92
2023-04-23T15:28:04.178Z,22.92
2023-04-23T15:30:30.918Z,22.95
2023-04-23T15:32:57.711Z,22.94
2023-04-23T15:35:26.444Z,22.95
2023-04-23T15:37:54.666Z,22.95
2023-04-23T15:40:21.279Z,22.97
2023-04-23T15:42:50.092Z,22.97
2023-04-23T15:45:17.184Z,22.91
2023-04-23T15:47:44.061Z,22.84
2023-04-23T15:50:11.904Z,22.75
2023-04-23T15:52:41.536Z,22.67
2023-04-23T15:55:08.649Z,22.59
2023-04-23T15:57:35.306Z,22.55
2023-04-23T16:00:01.965Z,22.55
2023-04-23T16:02:38.720Z,22.46
2023-04-23T16:05:05.827Z,22.42
2023-04-23T16:07:32.603Z,22.42
2023-04-23T16:09:59.278Z,22.44
2023-04-23T16:12:25.920Z,22.45
2023-04-23T16:14:52.632Z,22.44
2023-04-23T16:17:20.000Z,22.45
2023-04-23T16:19:46.746Z,22.41
2023-04-23T16:22:14.874Z,22.38
2023-04-23T16:24:41.807Z,22.38
2023-04-23T16:27:10.785Z,22.39
2023-04-23T16:29:38.644Z,22.40
2023-04-23T16:32:07.450Z,22.42
2023-04-23T16:34:34.267Z,22.44
2023-04-23T16:37:00.973Z,22.45
2023-04-23T16:39:27.655Z,22.44
2023-04-23T16:41:54.227Z,22.44
2023-04-23T16:44:20.909Z,22.43
2023-04-23T16:46:47.887Z,22.41
2023-04-23T16:49:14.779Z,22.40
2023-04-23T16:51:41.388Z,22.37
2023-04-23T16:54:08.117Z,22.33
2023-04-23T16:56:34.720Z,22.30
2023-04-23T16:59:01.922Z,22.29
2023-04-23T17:01:28.678Z,22.28
2023-04-23T17:03:55.395Z,22.25
2023-04-23T17:06:30.753Z,22.21
2023-04-23T17:08:59.388Z,22.19
2023-04-23T17:11:27.277Z,22.15
2023-04-23T17:13:55.358Z,22.11
2023-04-23T17:16:22.495Z,22.06
2023-04-23T17:18:49.216Z,21.99
2023-04-23T17:21:15.818Z,21.91
2023-04-23T17:23:42.447Z,21.78
2023-04-23T17:26:09.143Z,21.66
2023-04-23T17:28:35.812Z,21.57
2023-04-23T17:31:03.675Z,21.51
2023-04-23T17:33:30.882Z,21.46
2023-04-23T17:35:57.853Z,21.40
2023-04-23T17:38:25.080Z,21.36
2023-04-23T17:40:55.421Z,21.29
2023-04-23T17:43:22.379Z,21.25
2023-04-23T17:45:49.043Z,21.24
2023-04-23T17:48:16.064Z,21.22
2023-04-23T17:50:43.444Z,21.18
2023-04-23T17:53:10.772Z,21.13
2023-04-23T17:55:37.437Z,21.09
2023-04-23T17:58:07.512Z,21.06
2023-04-23T18:00:39.882Z,21.02
2023-04-23T18:03:07.449Z,20.99
2023-04-23T18:05:34.357Z,20.96
2023-04-23T18:08:01.225Z,20.93
2023-04-23T18:10:29.264Z,20.92
2023-04-23T18:12:56.302Z,20.91
2023-04-23T18:15:22.936Z,20.91
2023-04-23T18:17:50.433Z,20.88
2023-04-23T18:20:18.970Z,20.85
2023-04-23T18:22:45.621Z,20.80
2023-04-23T18:25:12.974Z,20.67
2023-04-23T18:27:40.125Z,20.59
2023-04-23T18:30:09.052Z,20.54
2023-04-23T18:32:41.063Z,20.48
2023-04-23T18:35:10.062Z,20.37
2023-04-23T18:37:41.271Z,20.30
2023-04-23T18:40:08.945Z,20.23
2023-04-23T18:42:37.851Z,20.17
2023-04-23T18:45:05.361Z,20.12
2023-04-23T18:47:38.179Z,20.06
2023-04-23T18:50:28.010Z,19.97
2023-04-23T18:52:55.853Z,19.91
2023-04-23T18:55:22.483Z,19.85
2023-04-23T18:57:49.111Z,19.80
2023-04-23T19:00:16.283Z,19.75
2023-04-23T19:02:43.291Z,19.69
2023-04-23T19:05:10.665Z,19.63
2023-04-23T19:07:40.637Z,19.58
2023-04-23T19:10:08.308Z,19.50
2023-04-23T19:12:34.987Z,19.43
2023-04-23T19:15:01.622Z,19.37
2023-04-23T19:17:28.329Z,19.35
2023-04-23T19:19:56.487Z,19.30
2023-04-23T19:22:25.737Z,19.28
2023-04-23T19:24:52.524Z,19.25
2023-04-23T19:27:19.287Z,19.23
2023-04-23T19:29:46.615Z,19.22
2023-04-23T19:32:13.344Z,19.21
2023-04-23T19:34:40.038Z,19.20
2023-04-23T19:37:06.866Z,19.19
2023-04-23T19:39:33.610Z,19.18
2023-04-23T19:42:02.633Z,19.15
2023-04-23T19:44:29.460Z,19.11
2023-04-23T19:46:56.612Z,19.11
2023-04-23T19:49:23.568Z,19.11
2023-04-23T19:51:53.354Z,19.10
2023-04-23T19:54:21.389Z,19.09
2023-04-23T19:56:49.487Z,19.07
2023-04-23T19:59:20.867Z,19.06
2023-04-23T20:01:48.270Z,19.05
2023-04-23T20:04:16.164Z,19.05
2023-04-23T20:06:43.403Z,19.07
2023-04-23T20:09:18.100Z,19.07
2023-04-23T20:11:46.464Z,19.08
2023-04-23T20:14:13.820Z,19.08
2023-04-23T20:16:41.555Z,19.08
2023-04-23T20:19:11.901Z,19.04
2023-04-23T20:21:39.261Z,19.00
2023-04-23T20:24:10.681Z,18.98
2023-04-23T20:26:38.697Z,19.00
2023-04-23T20:29:05.751Z,19.01
2023-04-23T20:31:33.345Z,19.02
2023-04-23T20:34:00.752Z,19.03
2023-04-23T20:36:33.255Z,19.03
2023-04-23T20:39:03.286Z,19.03
2023-04-23T20:41:32.238Z,19.04
2023-04-23T20:43:59.629Z,19.05
2023-04-23T20:46:30.099Z,19.03
2023-04-23T20:48:58.432Z,19.04
2023-04-23T20:51:25.672Z,19.05
2023-04-23T20:53:52.293Z,19.05
2023-04-23T20:56:19.010Z,19.06
2023-04-23T20:58:45.690Z,19.06
2023-04-23T21:01:12.401Z,19.04
2023-04-23T21:03:40.224Z,19.04
2023-04-23T21:06:09.142Z,19.03
2023-04-23T21:08:42.945Z,19.01
2023-04-23T21:11:18.348Z,18.99
2023-04-23T21:13:46.541Z,18.99
2023-04-23T21:16:13.969Z,18.99
2023-04-23T21:18:41.535Z,19.00
2023-04-23T21:21:08.347Z,19.01
2023-04-23T21:23:35.675Z,19.02
2023-04-23T21:26:03.453Z,19.03
2023-04-23T21:28:30.627Z,19.04
2023-04-23T21:31:04.931Z,19.05
2023-04-23T21:33:31.634Z,19.05
2023-04-23T21:35:58.321Z,19.04
2023-04-23T21:38:24.907Z,19.05
2023-04-23T21:40:51.589Z,19.04
2023-04-23T21:43:18.389Z,19.04
2023-04-23T21:45:45.429Z,19.03
2023-04-23T21:48:13.109Z,19.00
2023-04-23T21:50:39.930Z,19.00
2023-04-23T21:53:06.987Z,18.98
2023-04-23T21:55:33.938Z,18.98
2023-04-23T21:58:13.800Z,18.95
2023-04-23T22:00:44.454Z,18.90
2023-04-23T22:03:11.980Z,18.86
2023-04-23T22:05:42.195Z,18.82
2023-04-23T22:08:09.717Z,18.78
2023-04-23T22:10:42.919Z,18.73
2023-04-23T22:13:11.280Z,18.71
2023-04-23T22:15:38.493Z,18.70
2023-04-23T22:18:05.439Z,18.67
2023-04-23T22:20:32.307Z,18.63
2023-04-23T22:22:59.040Z,18.60
2023-04-23T22:25:26.558Z,18.60
2023-04-23T22:27:53.326Z,18.59
2023-04-23T22:30:20.657Z,18.53
2023-04-23T22:32:47.369Z,18.51
2023-04-23T22:35:14.293Z,18.50
2023-04-23T22:37:41.207Z,18.47
2023-04-23T22:40:09.836Z,18.45
2023-04-23T22:42:37.563Z,18.44
2023-04-23T22:45:06.242Z,18.43
2023-04-23T22:47:33.177Z,18.45
2023-04-23T22:49:59.944Z,18.48
2023-04-23T22:52:27.039Z,18.52
2023-04-23T22:54:54.993Z,18.53
2023-04-23T22:57:21.744Z,18.54
2023-04-23T22:59:48.876Z,18.55
2023-04-23T23:02:16.592Z,18.56
2023-04-23T23:04:43.260Z,18.57
2023-04-23T23:07:10.071Z,18.55
2023-04-23T23:09:36.855Z,18.53
2023-04-23T23:12:04.723Z,18.52
2023-04-23T23:14:32.074Z,18.52
2023-04-23T23:16:59.083Z,18.52
2023-04-23T23:19:31.087Z,18.49
2023-04-23T23:21:57.742Z,18.46
2023-04-23T23:24:24.454Z,18.42
2023-04-23T23:26:51.303Z,18.39
2023-04-23T23:29:18.052Z,18.36
2023-04-23T23:31:44.874Z,18.36
2023-04-23T23:34:12.414Z,18.36
2023-04-23T23:36:39.115Z,18.37
2023-04-23T23:39:06.883Z,18.37
2023-04-23T23:41:33.942Z,18.38
2023-04-23T23:44:00.769Z,18.38
2023-04-23T23:46:27.862Z,18.37
2023-04-23T23:48:54.972Z,18.36
2023-04-23T23:51:21.598Z,18.36
2023-04-23T23:53:48.166Z,18.33
2023-04-23T23:56:14.831Z,18.25
2023-04-23T23:58:41.427Z,18.19
